Angus, Canada
Current Conditions -  °F | °C
As of 12:00 PM on Friday 24 Oct 2014 (Local Time) from CYBN Reporting Station
Clear Clear  
Wind Chill: 50°   Ceiling: Unl
Heat Index: 50°   Visibility: 9mi
Dew Point: 43°   Wind: 3mph
Humidity: 76%   Direction: 270°W
Pressure: 30.01"   Gusts: NA
Location:  44.32°N, 79.88°W
Report Text: CYBN 241600Z AUTO 27003KT 230V350 9SM CLR 10/06 A3001 RMKSLP170
Loading
Personal Weather Stations






























Interactive Weather Map
Tropical Storm Tracking
New forecast layout! Learn more

10-Day Weather Forecast

Advertisements
Track Severe Weather on mobile